Domov               UVHVVR             MKGP            O straneh              
ZDRAVSTVENO VARSTVO RASTLIN
  MREŽA AGROMET. POSTAJ
 ► PROGNOSTIČNA OBVESTILA
AGROMETEOROLOŠKI PODATKI -
ARSO
OBVLADOVANJE TVEGANJ ZARADI
NEUGODNIH VREMENSKIH RAZMER
  ► NARAVNE NESREČE
  ► SUŠA/MOČA
  ► NAMAKANJE
  ► ŽLED (gozdarstvo)
KARTOGRAFSKI PRIKAZI
SPLETNE POVEZAVE
PROJEKTI IN PUBLIKACIJE

AGROMETEOROLOŠKA MREŽA: VREMENSKE POSTAJE IN FENOLOŠKA OPAZOVANJA

Pregled podatkov za lokacijo Maribor - BTŠ, meteorološka postaja 35810

Pregled senzorjev na lokaciji

ID Ime Zadnja
vrednost
Datum
zadnje
spremembe
Tip
senzorja
4297 Omočenost lista (U) 0 U 18.3.2019 23:00 A730WET
1723 Padavine (mm) 0 mm 18.3.2019 23:00 Generic 0.2 mm
1722 Relativna vlaga 2 m (% RH) 88,3 % RH 18.3.2019 23:00 Generic 0 - 100 %
1721 Temperatura 2 m (°C) 3,81 °C 18.3.2019 23:00 Generic -40 - +60 °C
4296 Smer vetra (°) 274,37 ° 18.3.2019 23:00 Generic 0 - 360
4295 Hitrost vetra (km/h) 3,03 km/h 18.3.2019 23:00 Generic 100 km/h

Pregled podatkov zadnjih 24 ur

Zap.
št.
Datum in čas Maribor - BTŠ
Omočenost
lista
Padavine Relativna
vlaga
2
m
Temperatura
2
m
Smer
vetra
Hitrost
vetra
1 18.3.2019 23:00
2 18.3.2019 22:30
3 18.3.2019 22:00 0 0 88,3 3,8 274,4 3
4 18.3.2019 21:30 0 0 87,9 3,9 281,3 3,1
5 18.3.2019 21:00 0 0 87,2 3,9 283,2 3
6 18.3.2019 20:30 0 0 85,9 4,1 273,8 3,4
7 18.3.2019 20:00 0 0 85,5 4,2 262,2 3,9
8 18.3.2019 19:30 0 0 85,5 4,2 255,4 2,9
9 18.3.2019 19:00 0 0 86 4,2 280,9 1,9
10 18.3.2019 18:30 0 0 83,6 4,5 247,6 1,5
11 18.3.2019 18:00 0 0 81,4 4,8 214,8 1,3
12 18.3.2019 17:30 0 0 81,8 4,8 241 1,6
13 18.3.2019 17:00 0 0 82,5 4,8 215,8 1,8
14 18.3.2019 16:30 0 0 84,4 4,8 261,8 3,2
15 18.3.2019 16:00 0 0 84,8 4,6 278,7 2,6
16 18.3.2019 15:30 6 0 86,3 4,4 244,3 3,4
17 18.3.2019 15:00 2 0 89,8 4,2 271,3 3,7
18 18.3.2019 14:30 0 0 94,6 3,9 263,4 3,7
19 18.3.2019 14:00 1 0 95,9 3,6 281,2 4,2
20 18.3.2019 13:30 1 0 96,4 3,1 265,1 3,4
21 18.3.2019 13:00 2 0,2 96,7 2,7 277,4 4
22 18.3.2019 12:30 3 0,4 96,8 3,1 273,1 3,7
23 18.3.2019 12:00 3 0,4 96,8 3,2 274,6 2,5
24 18.3.2019 11:30 2 0,8 96,8 2,9 261,5 2,4
25 18.3.2019 11:00 2 0,8 96,7 2,7 286 3,3
26 18.3.2019 10:30 3 0,8 96,6 3,1 292 3,1
27 18.3.2019 10:00 3 0 96,6 3,1 247,6 2,7
28 18.3.2019 09:30 3 0,2 96,4 2,8 262,6 2,4
29 18.3.2019 09:00 3 1,2 96,2 2,6 271,7 2,1
30 18.3.2019 08:30 3 0,6 95,9 2,7 287,1 3,2
31 18.3.2019 08:00 4 1 95,7 2,7 292,5 3,9
32 18.3.2019 07:30 3 1,8 95,3 3,2 278,5 4,2
33 18.3.2019 07:00 3 1,8 93,9 3,9 284,3 4,2
34 18.3.2019 06:30 4 1 92,4 4,1 301,7 4
35 18.3.2019 06:00 4 0,8 91 4,3 265,9 4,3
36 18.3.2019 05:30 8 2 89,1 5,2 283,2 4,7
37 18.3.2019 05:00 9 0,6 82,3 6,5 281,8 4,9
38 18.3.2019 04:30 10 0,8 79,7 7,2 281 5,5
39 18.3.2019 04:00 10 0,2 67,5 9,2 252,7 7
40 18.3.2019 03:30 10 0 67 10,8 250,5 1,8
41 18.3.2019 03:00 0 0 67,2 10,8 356,7 1,2
42 18.3.2019 02:30 0 0 65,1 11,4 33,9 1,9
43 18.3.2019 02:00 0 0 75,5 8,5 302,9 1,7
44 18.3.2019 01:30 0 0 80,4 6,6 148,3 0,8
45 18.3.2019 01:00 0 0 78,2 7 76 1,1
46 18.3.2019 00:30 0 0 73,3 8,1 78,2 0,9
47 18.3.2019 00:00 0 0 72,3 8,8 95,2 1
48 17.3.2019 23:30 0 0 70 9,3 51,4 1,3
© 2011 Ministrstvo za kmetijstvo, gozdarstvo in prehrano. Vse pravice pridržane.